Time;durP1;ratioP1;P1;durP2;ratioP2;P2;SDS_P1;SDS_P2;PMS_P1;PMS_P2;Temp;Humidity;BMP_temperature;BMP_pressure;BME280_temperature;BME280_humidity;BME280_pressure;Samples;Min_cycle;Max_cycle;Signal;HPM_P1;HPM_P2
2023/04/28 00:00:33;;;;;;;3.80;3.43;;;;;;;;;;5041037;28;20271;-53
2023/04/28 00:03:00;;;;;;;4.63;2.97;;;;;;;;;;5042324;28;20290;-52
2023/04/28 00:05:26;;;;;;;4.40;3.50;;;;;;;;;;5043491;28;20236;-51
2023/04/28 00:07:53;;;;;;;7.30;3.73;;;;;;;;;;5041619;28;20236;-51
2023/04/28 00:10:20;;;;;;;3.77;3.27;;;;;;;;;;5038428;28;20320;-51
2023/04/28 00:12:46;;;;;;;6.03;3.40;;;;;;;;;;5038139;28;20995;-50
2023/04/28 00:15:13;;;;;;;6.00;3.57;;;;;;;;;;5040833;28;20714;-52
2023/04/28 00:17:42;;;;;;;6.67;3.77;;;;;;;;;;5044005;28;20236;-51
2023/04/28 00:20:09;;;;;;;7.17;3.33;;;;;;;;;;5042752;28;20236;-51
2023/04/28 00:22:36;;;;;;;7.03;4.27;;;;;;;;;;5038407;28;20236;-51
2023/04/28 00:25:03;;;;;;;3.93;3.10;;;;;;;;;;5037035;28;20326;-50
2023/04/28 00:27:30;;;;;;;3.60;3.30;;;;;;;;;;5043438;28;20285;-51
2023/04/28 00:29:57;;;;;;;6.07;3.07;;;;;;;;;;5040471;28;20228;-51
2023/04/28 00:32:23;;;;;;;5.33;3.77;;;;;;;;;;5039858;28;20314;-51
2023/04/28 00:34:52;;;;;;;3.43;2.77;;;;;;;;;;5039569;28;20232;-52
2023/04/28 00:37:18;;;;;;;6.33;3.50;;;;;;;;;;5040337;28;20231;-51
2023/04/28 00:39:46;;;;;;;5.27;3.13;;;;;;;;;;5040890;28;20252;-51
2023/04/28 00:42:12;;;;;;;2.80;2.60;;;;;;;;;;5042325;28;20366;-55
2023/04/28 00:44:39;;;;;;;6.50;3.00;;;;;;;;;;5039975;28;20236;-51
2023/04/28 00:47:06;;;;;;;6.83;2.70;;;;;;;;;;5042192;28;20929;-51
2023/04/28 00:49:34;;;;;;;4.10;3.00;;;;;;;;;;5041612;28;20649;-52
2023/04/28 00:52:04;;;;;;;2.53;2.33;;;;;;;;;;5037430;28;20791;-52
2023/04/28 00:54:31;;;;;;;3.70;3.03;;;;;;;;;;5043445;28;20230;-50
2023/04/28 00:56:57;;;;;;;5.03;3.20;;;;;;;;;;5040881;28;20239;-50
2023/04/28 00:59:24;;;;;;;2.90;2.70;;;;;;;;;;5040088;28;20228;-51
2023/04/28 01:01:50;;;;;;;5.77;3.40;;;;;;;;;;5036479;28;20277;-51
2023/04/28 01:04:20;;;;;;;4.43;3.37;;;;;;;;;;5049953;28;20327;-52
2023/04/28 01:06:47;;;;;;;4.83;3.50;;;;;;;;;;5047965;28;20228;-52
2023/04/28 01:09:15;;;;;;;6.67;3.30;;;;;;;;;;5052375;28;20236;-52
2023/04/28 01:11:42;;;;;;;6.67;3.37;;;;;;;;;;5055967;28;20239;-53
2023/04/28 01:14:08;;;;;;;4.23;3.17;;;;;;;;;;5042618;28;20232;-51
2023/04/28 01:16:36;;;;;;;2.77;2.47;;;;;;;;;;5036838;28;20761;-51
2023/04/28 01:19:03;;;;;;;7.50;3.60;;;;;;;;;;5041304;28;20301;-52
2023/04/28 01:21:31;;;;;;;4.27;2.93;;;;;;;;;;5041811;28;20228;-51
2023/04/28 01:23:59;;;;;;;5.97;3.27;;;;;;;;;;5035359;28;20236;-51
2023/04/28 01:26:26;;;;;;;3.10;2.80;;;;;;;;;;5041316;28;20233;-54
2023/04/28 01:28:52;;;;;;;5.13;3.10;;;;;;;;;;5039087;28;20281;-52
2023/04/28 01:31:19;;;;;;;3.83;2.80;;;;;;;;;;5041946;28;20238;-51
2023/04/28 01:33:46;;;;;;;4.10;3.47;;;;;;;;;;5040686;28;20232;-52
2023/04/28 01:36:12;;;;;;;7.93;3.47;;;;;;;;;;5042791;28;20238;-56
2023/04/28 01:38:39;;;;;;;5.83;3.13;;;;;;;;;;5042255;28;20285;-51
2023/04/28 01:41:07;;;;;;;5.03;3.13;;;;;;;;;;5040455;28;20344;-52
2023/04/28 01:43:35;;;;;;;3.47;2.73;;;;;;;;;;5038438;28;20232;-51
2023/04/28 01:46:01;;;;;;;3.80;2.63;;;;;;;;;;5040765;28;20235;-51
2023/04/28 01:48:28;;;;;;;4.57;2.60;;;;;;;;;;5040894;28;20235;-51
2023/04/28 01:50:54;;;;;;;4.90;3.07;;;;;;;;;;5039411;28;20792;-51
2023/04/28 01:53:21;;;;;;;3.93;2.40;;;;;;;;;;5040497;28;20503;-52
2023/04/28 01:55:48;;;;;;;8.37;2.93;;;;;;;;;;5041512;28;20266;-51
2023/04/28 01:58:16;;;;;;;2.87;2.67;;;;;;;;;;5038678;28;20685;-52
2023/04/28 02:00:42;;;;;;;3.40;3.10;;;;;;;;;;5039800;28;20236;-51
2023/04/28 02:03:08;;;;;;;3.23;2.60;;;;;;;;;;5040889;28;20235;-52
2023/04/28 02:05:35;;;;;;;2.83;2.53;;;;;;;;;;5041406;28;20323;-51
2023/04/28 02:08:02;;;;;;;5.60;3.07;;;;;;;;;;5037435;28;20232;-51
2023/04/28 02:10:29;;;;;;;3.97;3.03;;;;;;;;;;5038429;28;20670;-51
2023/04/28 02:12:55;;;;;;;3.97;3.47;;;;;;;;;;5042136;28;20787;-51
2023/04/28 02:15:23;;;;;;;3.20;2.83;;;;;;;;;;5040606;28;20289;-52
2023/04/28 02:17:50;;;;;;;5.83;3.83;;;;;;;;;;5039878;28;20236;-50
2023/04/28 02:20:16;;;;;;;3.27;2.93;;;;;;;;;;5040321;28;20619;-51
2023/04/28 02:22:43;;;;;;;4.63;3.33;;;;;;;;;;5041525;28;20251;-52
2023/04/28 02:25:10;;;;;;;3.27;2.73;;;;;;;;;;5041568;28;20670;-52
2023/04/28 02:27:37;;;;;;;5.00;3.53;;;;;;;;;;5041714;28;20291;-51
2023/04/28 02:30:04;;;;;;;3.93;3.50;;;;;;;;;;5042533;28;20845;-51
2023/04/28 02:32:32;;;;;;;5.13;3.90;;;;;;;;;;5042693;28;20231;-51
2023/04/28 02:34:59;;;;;;;8.73;3.57;;;;;;;;;;5040631;28;20228;-52
2023/04/28 02:37:25;;;;;;;6.00;3.93;;;;;;;;;;5040077;28;20252;-52
2023/04/28 02:39:52;;;;;;;5.73;3.73;;;;;;;;;;5040091;28;20252;-52
2023/04/28 02:42:18;;;;;;;4.83;3.73;;;;;;;;;;5041837;28;20262;-51
2023/04/28 02:44:45;;;;;;;4.60;3.93;;;;;;;;;;5039669;28;20866;-52
2023/04/28 02:47:12;;;;;;;4.23;3.83;;;;;;;;;;5040587;28;20232;-52
2023/04/28 02:49:40;;;;;;;5.50;3.50;;;;;;;;;;5039605;28;20313;-50
2023/04/28 02:52:06;;;;;;;5.50;4.07;;;;;;;;;;5039987;28;20237;-53
2023/04/28 02:54:35;;;;;;;4.97;3.87;;;;;;;;;;5040129;28;20239;-51
2023/04/28 02:57:02;;;;;;;5.07;4.10;;;;;;;;;;5040928;28;20232;-51
2023/04/28 02:59:29;;;;;;;5.33;4.00;;;;;;;;;;5040385;28;20251;-52
2023/04/28 03:01:55;;;;;;;5.37;3.40;;;;;;;;;;5040890;28;20227;-51
2023/04/28 03:04:22;;;;;;;4.67;3.53;;;;;;;;;;5041512;28;20788;-51
2023/04/28 03:06:50;;;;;;;4.43;3.40;;;;;;;;;;5042110;28;20224;-51
2023/04/28 03:09:17;;;;;;;5.53;3.63;;;;;;;;;;5034335;28;20726;-51
2023/04/28 03:11:43;;;;;;;7.13;4.13;;;;;;;;;;5038985;28;20324;-52
2023/04/28 03:14:10;;;;;;;7.03;4.23;;;;;;;;;;5041150;28;20239;-51
2023/04/28 03:16:36;;;;;;;5.00;4.03;;;;;;;;;;5040868;28;20255;-51
2023/04/28 03:19:03;;;;;;;4.30;3.60;;;;;;;;;;5059406;28;20467;-52
2023/04/28 03:21:29;;;;;;;5.10;3.53;;;;;;;;;;5052326;28;20244;-51
2023/04/28 03:23:57;;;;;;;6.13;4.27;;;;;;;;;;5044012;28;20228;-52
2023/04/28 03:26:24;;;;;;;4.97;3.73;;;;;;;;;;5040701;28;20234;-52
2023/04/28 03:28:50;;;;;;;9.33;4.77;;;;;;;;;;5041616;28;20239;-51
2023/04/28 03:31:17;;;;;;;4.77;4.13;;;;;;;;;;5044613;28;20239;-51
2023/04/28 03:33:45;;;;;;;6.67;3.83;;;;;;;;;;5039407;28;20231;-52
2023/04/28 03:36:12;;;;;;;6.17;3.93;;;;;;;;;;5044262;28;20236;-51
2023/04/28 03:38:39;;;;;;;4.27;3.87;;;;;;;;;;5043722;28;20690;-51
2023/04/28 03:41:07;;;;;;;7.50;3.53;;;;;;;;;;5042008;28;20236;-51
2023/04/28 03:43:36;;;;;;;5.13;3.63;;;;;;;;;;5044926;28;20705;-51
2023/04/28 03:46:02;;;;;;;6.03;4.03;;;;;;;;;;5041222;28;25749;-51
2023/04/28 03:48:29;;;;;;;7.10;4.20;;;;;;;;;;5043385;28;20224;-52
2023/04/28 03:50:56;;;;;;;4.93;3.73;;;;;;;;;;5041120;28;20232;-50
2023/04/28 03:53:22;;;;;;;7.27;3.60;;;;;;;;;;5037378;28;20239;-51
2023/04/28 03:55:49;;;;;;;4.77;3.50;;;;;;;;;;5042522;28;20278;-55
2023/04/28 03:58:17;;;;;;;6.80;3.87;;;;;;;;;;5041647;28;20344;-51
2023/04/28 04:00:44;;;;;;;4.00;3.60;;;;;;;;;;5039150;28;20243;-52
2023/04/28 04:03:11;;;;;;;4.30;3.50;;;;;;;;;;5049504;28;20431;-51
2023/04/28 04:05:39;;;;;;;7.37;3.80;;;;;;;;;;5047787;28;20243;-50
2023/04/28 04:08:06;;;;;;;7.57;3.90;;;;;;;;;;5041060;28;20236;-50
2023/04/28 04:10:32;;;;;;;8.77;4.27;;;;;;;;;;5041957;28;20236;-51
2023/04/28 04:12:59;;;;;;;7.03;3.80;;;;;;;;;;5041610;28;20281;-51
2023/04/28 04:15:27;;;;;;;5.97;3.70;;;;;;;;;;5041849;28;20289;-51
2023/04/28 04:17:54;;;;;;;4.77;3.73;;;;;;;;;;5042909;28;20235;-52
2023/04/28 04:20:20;;;;;;;4.20;3.80;;;;;;;;;;5042238;28;20236;-51
2023/04/28 04:22:47;;;;;;;4.70;3.90;;;;;;;;;;5043847;28;20726;-50
2023/04/28 04:25:13;;;;;;;6.80;3.67;;;;;;;;;;5046990;28;20231;-51
2023/04/28 04:27:40;;;;;;;5.33;3.30;;;;;;;;;;5042299;28;20246;-51
2023/04/28 04:30:07;;;;;;;5.93;4.87;;;;;;;;;;5043126;28;20244;-52
2023/04/28 04:32:35;;;;;;;6.73;3.33;;;;;;;;;;5041651;28;20785;-50
2023/04/28 04:35:02;;;;;;;5.53;3.77;;;;;;;;;;5038118;28;20709;-50
2023/04/28 04:37:29;;;;;;;6.00;3.97;;;;;;;;;;5040388;28;20236;-53
2023/04/28 04:39:56;;;;;;;4.33;3.23;;;;;;;;;;5043524;28;20268;-51
2023/04/28 04:42:22;;;;;;;6.73;4.37;;;;;;;;;;5042494;28;20238;-51
2023/04/28 04:44:49;;;;;;;5.03;4.53;;;;;;;;;;5040955;28;20235;-51
2023/04/28 04:47:16;;;;;;;7.10;4.03;;;;;;;;;;5043716;28;20323;-50
2023/04/28 04:49:44;;;;;;;4.43;3.77;;;;;;;;;;5042977;28;20855;-50
2023/04/28 04:52:10;;;;;;;4.93;3.83;;;;;;;;;;5041848;28;20309;-51
2023/04/28 04:54:37;;;;;;;6.30;3.87;;;;;;;;;;5044304;28;20901;-51
2023/04/28 04:57:04;;;;;;;7.97;3.70;;;;;;;;;;5045255;28;20240;-50
2023/04/28 04:59:30;;;;;;;6.43;4.40;;;;;;;;;;5039297;28;20224;-51
2023/04/28 05:01:57;;;;;;;5.00;3.70;;;;;;;;;;5043481;28;20239;-52
2023/04/28 05:04:23;;;;;;;4.80;3.87;;;;;;;;;;5047148;28;20233;-51
2023/04/28 05:06:51;;;;;;;11.40;4.40;;;;;;;;;;5042491;28;20242;-50
2023/04/28 05:09:18;;;;;;;4.33;3.53;;;;;;;;;;5046495;28;20251;-51
2023/04/28 05:11:45;;;;;;;12.23;3.70;;;;;;;;;;5047140;28;20236;-50
2023/04/28 05:14:11;;;;;;;5.27;4.10;;;;;;;;;;5046393;28;20240;-51
2023/04/28 05:16:38;;;;;;;8.77;4.27;;;;;;;;;;5042311;28;20777;-51
2023/04/28 05:19:05;;;;;;;5.07;3.73;;;;;;;;;;5050155;28;20242;-52
2023/04/28 05:21:31;;;;;;;4.37;3.77;;;;;;;;;;5055997;28;20725;-52
2023/04/28 05:24:00;;;;;;;3.33;3.03;;;;;;;;;;5054066;28;20295;-52
2023/04/28 05:26:26;;;;;;;6.10;3.83;;;;;;;;;;5048247;28;20232;-52
2023/04/28 05:28:53;;;;;;;6.50;3.80;;;;;;;;;;5039577;28;20237;-52
2023/04/28 05:31:19;;;;;;;4.17;3.23;;;;;;;;;;5043523;28;20243;-52
2023/04/28 05:33:46;;;;;;;4.37;3.93;;;;;;;;;;5041093;28;20232;-51
2023/04/28 05:36:15;;;;;;;7.13;4.23;;;;;;;;;;5043759;28;20224;-56
2023/04/28 05:38:42;;;;;;;6.60;3.97;;;;;;;;;;5036773;28;20809;-51
2023/04/28 05:41:10;;;;;;;3.73;3.30;;;;;;;;;;5034650;28;20233;-51
2023/04/28 05:43:37;;;;;;;5.97;4.03;;;;;;;;;;5042130;28;20311;-51
2023/04/28 05:46:03;;;;;;;4.97;4.37;;;;;;;;;;5044936;28;20236;-52
2023/04/28 05:48:30;;;;;;;9.97;4.27;;;;;;;;;;5041416;28;20236;-50
2023/04/28 05:50:57;;;;;;;6.17;3.77;;;;;;;;;;5038570;28;20239;-51
2023/04/28 05:53:23;;;;;;;8.23;4.63;;;;;;;;;;5039224;28;20718;-51
2023/04/28 05:55:50;;;;;;;5.67;4.50;;;;;;;;;;5041874;28;20224;-52
2023/04/28 05:58:18;;;;;;;9.70;4.63;;;;;;;;;;5039116;28;20238;-51
2023/04/28 06:00:45;;;;;;;7.43;4.23;;;;;;;;;;5037407;28;20240;-51
2023/04/28 06:03:14;;;;;;;5.07;4.33;;;;;;;;;;5042358;28;20230;-51
2023/04/28 06:05:41;;;;;;;8.47;3.73;;;;;;;;;;5042164;28;20342;-52
2023/04/28 06:08:07;;;;;;;10.77;5.23;;;;;;;;;;5044058;28;20259;-51
2023/04/28 06:10:34;;;;;;;8.77;4.60;;;;;;;;;;5041867;28;20240;-51
2023/04/28 06:13:01;;;;;;;8.27;5.03;;;;;;;;;;5044524;28;20256;-52
2023/04/28 06:15:29;;;;;;;4.47;4.00;;;;;;;;;;5041200;28;20228;-51
2023/04/28 06:17:55;;;;;;;6.33;3.70;;;;;;;;;;5034892;28;20229;-53
2023/04/28 06:20:22;;;;;;;6.80;3.80;;;;;;;;;;5037905;28;20827;-52
2023/04/28 06:22:49;;;;;;;9.13;4.37;;;;;;;;;;5041590;28;20232;-50
2023/04/28 06:25:15;;;;;;;4.63;2.97;;;;;;;;;;5039759;28;20227;-52
2023/04/28 06:27:42;;;;;;;5.40;3.93;;;;;;;;;;5039372;28;20232;-52
2023/04/28 06:30:09;;;;;;;5.30;4.03;;;;;;;;;;5039163;28;20231;-51
2023/04/28 06:32:37;;;;;;;5.67;3.73;;;;;;;;;;5041796;28;20228;-55
2023/04/28 06:35:04;;;;;;;8.63;3.87;;;;;;;;;;5041194;28;20239;-51
2023/04/28 06:37:31;;;;;;;4.07;3.30;;;;;;;;;;5037766;28;20231;-51
2023/04/28 06:39:57;;;;;;;5.63;4.50;;;;;;;;;;5038832;28;20346;-51
2023/04/28 06:42:24;;;;;;;6.03;4.10;;;;;;;;;;5037598;28;20232;-51
2023/04/28 06:44:51;;;;;;;9.03;4.43;;;;;;;;;;5036125;28;20247;-51
2023/04/28 06:47:17;;;;;;;6.67;3.97;;;;;;;;;;5034494;28;21629;-52
2023/04/28 06:49:48;;;;;;;8.43;4.77;;;;;;;;;;5039265;28;20219;-54
2023/04/28 06:52:15;;;;;;;8.23;4.50;;;;;;;;;;5043236;28;20246;-52
2023/04/28 06:54:42;;;;;;;8.67;5.23;;;;;;;;;;5041148;28;20235;-50
2023/04/28 06:57:08;;;;;;;5.60;4.57;;;;;;;;;;5043220;28;20759;-52
2023/04/28 06:59:35;;;;;;;8.27;4.33;;;;;;;;;;5045465;28;20303;-52
2023/04/28 07:02:01;;;;;;;5.87;3.80;;;;;;;;;;5046324;28;20235;-51
2023/04/28 07:04:28;;;;;;;5.30;4.33;;;;;;;;;;5047656;28;20318;-53
2023/04/28 07:06:56;;;;;;;6.97;4.57;;;;;;;;;;5042566;28;20238;-51
2023/04/28 07:09:23;;;;;;;10.23;3.97;;;;;;;;;;5044885;28;20632;-52
2023/04/28 07:11:50;;;;;;;5.07;3.83;;;;;;;;;;5046771;28;20228;-51
2023/04/28 07:14:18;;;;;;;6.17;3.67;;;;;;;;;;5045815;28;20235;-52
2023/04/28 07:16:44;;;;;;;8.40;4.03;;;;;;;;;;5042363;28;20252;-51
2023/04/28 07:19:11;;;;;;;6.23;4.57;;;;;;;;;;5043877;28;20829;-52
2023/04/28 07:21:37;;;;;;;6.43;4.27;;;;;;;;;;5045704;28;20242;-51
2023/04/28 07:24:06;;;;;;;5.10;3.83;;;;;;;;;;5047262;28;20246;-50
2023/04/28 07:26:33;;;;;;;4.40;3.17;;;;;;;;;;5045372;28;20232;-51
2023/04/28 07:29:00;;;;;;;4.57;4.00;;;;;;;;;;5051474;28;20241;-51
2023/04/28 07:31:26;;;;;;;4.37;3.50;;;;;;;;;;5042353;28;20291;-58
2023/04/28 07:33:53;;;;;;;11.53;5.67;;;;;;;;;;5046771;28;20236;-52
2023/04/28 07:36:19;;;;;;;5.00;3.37;;;;;;;;;;5042875;28;20231;-52
2023/04/28 07:38:46;;;;;;;6.70;5.00;;;;;;;;;;5043594;28;20237;-51
2023/04/28 07:41:14;;;;;;;4.00;3.27;;;;;;;;;;5046369;28;20251;-50
2023/04/28 07:43:40;;;;;;;5.60;3.23;;;;;;;;;;5051577;28;20297;-54
2023/04/28 07:46:07;;;;;;;4.67;3.90;;;;;;;;;;5044969;28;20232;-52
2023/04/28 07:48:34;;;;;;;5.43;3.67;;;;;;;;;;5051792;28;20230;-51
2023/04/28 07:51:01;;;;;;;5.17;3.63;;;;;;;;;;5048138;28;20319;-51
2023/04/28 07:53:28;;;;;;;7.82;4.40;;;;;;;;;;5049542;28;20247;-50
2023/04/28 07:55:55;;;;;;;5.53;4.23;;;;;;;;;;5043730;28;20228;-51
2023/04/28 07:58:23;;;;;;;7.97;3.73;;;;;;;;;;5041946;28;20717;-50
2023/04/28 08:00:49;;;;;;;5.43;3.65;;;;;;;;;;5041044;28;20736;-51
2023/04/28 08:03:16;;;;;;;6.10;3.23;;;;;;;;;;5041728;28;20248;-52
2023/04/28 08:05:43;;;;;;;5.78;3.53;;;;;;;;;;5039575;28;20236;-51
2023/04/28 08:08:10;;;;;;;5.60;3.38;;;;;;;;;;5043259;28;20223;-51
2023/04/28 08:10:39;;;;;;;6.95;3.10;;;;;;;;;;5043346;28;20305;-51
2023/04/28 08:13:05;;;;;;;3.75;3.05;;;;;;;;;;5041649;28;20231;-51
2023/04/28 08:15:33;;;;;;;8.27;4.25;;;;;;;;;;5041170;28;20236;-51
2023/04/28 08:18:00;;;;;;;4.95;3.40;;;;;;;;;;5036220;28;20831;-50
2023/04/28 08:20:28;;;;;;;8.25;4.60;;;;;;;;;;5044510;28;20242;-52
2023/04/28 08:22:54;;;;;;;6.25;3.85;;;;;;;;;;5043279;28;20249;-50
2023/04/28 08:25:21;;;;;;;5.50;3.25;;;;;;;;;;5046007;28;20327;-52
2023/04/28 08:27:47;;;;;;;7.15;3.80;;;;;;;;;;5045718;28;20282;-51
2023/04/28 08:30:14;;;;;;;7.70;3.30;;;;;;;;;;5047739;28;20908;-52
2023/04/28 08:32:41;;;;;;;5.90;3.50;;;;;;;;;;5044657;28;20319;-51
2023/04/28 08:35:08;;;;;;;6.43;3.58;;;;;;;;;;5045441;28;20235;-51
2023/04/28 08:37:34;;;;;;;5.75;3.47;;;;;;;;;;5045405;28;20231;-51
2023/04/28 08:40:03;;;;;;;8.65;7.75;;;;;;;;;;5045684;28;20331;-51
2023/04/28 08:42:30;;;;;;;5.57;5.07;;;;;;;;;;5045383;28;20228;-51
2023/04/28 08:44:58;;;;;;;6.03;5.35;;;;;;;;;;5047390;28;20236;-51
2023/04/28 08:47:27;;;;;;;7.40;4.55;;;;;;;;;;5043170;28;20232;-52
2023/04/28 08:49:56;;;;;;;6.50;3.30;;;;;;;;;;5038149;28;20307;-51
2023/04/28 08:52:24;;;;;;;5.38;3.30;;;;;;;;;;5040992;28;20310;-51
2023/04/28 08:54:51;;;;;;;7.40;4.78;;;;;;;;;;5043352;28;20262;-52
2023/04/28 08:57:18;;;;;;;5.20;4.57;;;;;;;;;;5044376;28;20255;-52
2023/04/28 08:59:44;;;;;;;5.88;3.47;;;;;;;;;;5040442;28;20236;-51
2023/04/28 09:02:10;;;;;;;6.40;3.60;;;;;;;;;;5043228;28;20224;-51
2023/04/28 09:04:37;;;;;;;8.07;4.03;;;;;;;;;;5041748;28;20332;-51
2023/04/28 09:07:10;;;;;;;6.00;4.75;;;;;;;;;;5044984;28;20255;-50
2023/04/28 09:09:36;;;;;;;5.22;3.28;;;;;;;;;;5043925;28;20307;-51
2023/04/28 09:12:03;;;;;;;8.45;3.78;;;;;;;;;;5041102;28;20232;-52
2023/04/28 09:14:31;;;;;;;4.20;3.60;;;;;;;;;;5042224;28;20255;-50
2023/04/28 09:16:58;;;;;;;4.20;3.78;;;;;;;;;;5041314;28;20235;-51
2023/04/28 09:19:25;;;;;;;7.93;4.60;;;;;;;;;;5047900;28;20235;-50
2023/04/28 09:21:52;;;;;;;6.15;3.85;;;;;;;;;;5040169;28;20625;-52
2023/04/28 09:24:30;;;;;;;7.40;4.10;;;;;;;;;;5040230;28;20231;-55
2023/04/28 09:26:57;;;;;;;7.20;3.70;;;;;;;;;;5042750;28;20235;-53
2023/04/28 09:29:23;;;;;;;6.97;4.68;;;;;;;;;;5042752;28;20236;-51
2023/04/28 09:31:50;;;;;;;8.07;4.07;;;;;;;;;;5042788;28;20240;-52
2023/04/28 09:34:17;;;;;;;8.75;4.28;;;;;;;;;;5045193;28;22228;-53
2023/04/28 09:36:43;;;;;;;6.75;4.05;;;;;;;;;;5046496;28;20817;-51
2023/04/28 09:39:10;;;;;;;5.30;3.70;;;;;;;;;;5039848;28;20599;-51
2023/04/28 09:41:39;;;;;;;5.05;4.10;;;;;;;;;;5041473;28;20430;-51
2023/04/28 09:44:12;;;;;;;8.10;4.57;;;;;;;;;;5041984;28;20239;-51
2023/04/28 09:46:39;;;;;;;5.72;4.18;;;;;;;;;;5042915;28;20322;-50
2023/04/28 09:49:05;;;;;;;11.15;4.95;;;;;;;;;;5041172;28;20238;-51
2023/04/28 09:51:33;;;;;;;6.13;4.85;;;;;;;;;;5042189;28;20258;-51
2023/04/28 09:54:00;;;;;;;4.65;3.80;;;;;;;;;;5043398;28;20323;-51
2023/04/28 09:56:27;;;;;;;5.55;4.07;;;;;;;;;;5038870;28;20246;-50
2023/04/28 09:58:56;;;;;;;7.55;4.88;;;;;;;;;;5038031;28;20250;-50
2023/04/28 10:01:24;;;;;;;5.53;5.00;;;;;;;;;;5037858;28;20317;-52
2023/04/28 10:03:51;;;;;;;4.90;4.35;;;;;;;;;;5039335;28;20251;-50
2023/04/28 10:06:17;;;;;;;6.50;4.53;;;;;;;;;;5044573;28;20232;-52
2023/04/28 10:08:47;;;;;;;7.07;4.00;;;;;;;;;;5040774;28;20227;-50
2023/04/28 10:11:14;;;;;;;6.90;4.60;;;;;;;;;;5046745;28;20323;-51
2023/04/28 10:13:41;;;;;;;9.68;4.72;;;;;;;;;;5042240;28;20231;-51
2023/04/28 10:16:10;;;;;;;6.88;3.95;;;;;;;;;;5040151;28;20236;-50
2023/04/28 10:18:37;;;;;;;5.53;3.97;;;;;;;;;;5042399;28;20239;-51
2023/04/28 10:21:04;;;;;;;5.47;3.80;;;;;;;;;;5039788;28;20239;-51
2023/04/28 10:23:57;;;;;;;6.25;4.15;;;;;;;;;;5040842;28;20608;-50
2023/04/28 10:26:27;;;;;;;7.30;3.90;;;;;;;;;;5041489;28;20729;-51
2023/04/28 10:28:53;;;;;;;8.20;5.05;;;;;;;;;;5040353;28;20721;-52
2023/04/28 10:31:22;;;;;;;8.30;4.88;;;;;;;;;;5040749;28;20236;-50
2023/04/28 10:33:48;;;;;;;6.47;4.30;;;;;;;;;;5046726;28;20236;-51
2023/04/28 10:36:29;;;;;;;4.80;4.22;;;;;;;;;;5049779;28;20956;-51
2023/04/28 10:39:08;;;;;;;6.70;4.30;;;;;;;;;;5039818;28;20291;-51
2023/04/28 10:41:35;;;;;;;5.05;4.55;;;;;;;;;;5041236;28;20231;-50
2023/04/28 10:44:01;;;;;;;7.00;4.93;;;;;;;;;;5046584;28;20232;-52
2023/04/28 10:46:49;;;;;;;5.03;4.35;;;;;;;;;;5046224;28;20238;-50
2023/04/28 10:49:15;;;;;;;4.95;3.60;;;;;;;;;;5038551;28;21104;-52
2023/04/28 10:51:41;;;;;;;8.20;4.63;;;;;;;;;;5040904;28;20899;-50
2023/04/28 10:54:08;;;;;;;10.73;4.25;;;;;;;;;;5040549;28;20258;-51
2023/04/28 10:56:35;;;;;;;6.85;4.30;;;;;;;;;;5041192;28;21651;-52
2023/04/28 10:59:21;;;;;;;5.18;3.90;;;;;;;;;;5040259;28;20255;-54
2023/04/28 11:01:49;;;;;;;5.78;4.90;;;;;;;;;;5034705;28;20285;-51
2023/04/28 11:04:16;;;;;;;5.43;4.40;;;;;;;;;;5041872;28;20235;-53
2023/04/28 11:06:44;;;;;;;7.57;4.22;;;;;;;;;;5040323;28;20347;-50
2023/04/28 11:09:25;;;;;;;7.15;4.88;;;;;;;;;;5041305;28;20235;-51
2023/04/28 11:12:04;;;;;;;6.38;4.47;;;;;;;;;;5037339;28;20300;-51
2023/04/28 11:14:31;;;;;;;9.43;4.60;;;;;;;;;;5040828;28;20263;-51
2023/04/28 11:17:00;;;;;;;9.05;5.03;;;;;;;;;;5038020;28;20227;-51
2023/04/28 11:19:28;;;;;;;5.15;4.07;;;;;;;;;;5040945;28;20973;-51
2023/04/28 11:21:55;;;;;;;4.80;3.88;;;;;;;;;;5040580;28;20259;-51
2023/04/28 11:24:24;;;;;;;8.65;4.50;;;;;;;;;;5040832;28;20228;-51
2023/04/28 11:26:51;;;;;;;5.38;4.20;;;;;;;;;;5036733;28;20228;-50
2023/04/28 11:29:17;;;;;;;5.15;4.10;;;;;;;;;;5039620;28;20232;-53
2023/04/28 11:31:49;;;;;;;5.72;4.25;;;;;;;;;;5041363;28;20246;-52
2023/04/28 11:34:18;;;;;;;7.55;4.45;;;;;;;;;;5040669;28;20654;-51
2023/04/28 11:36:45;;;;;;;6.80;4.38;;;;;;;;;;5042281;28;20724;-53
2023/04/28 11:39:12;;;;;;;10.25;5.10;;;;;;;;;;5044244;28;20311;-51
2023/04/28 11:41:39;;;;;;;7.53;3.63;;;;;;;;;;5045279;28;20239;-50
2023/04/28 11:44:12;;;;;;;5.68;4.43;;;;;;;;;;5040907;28;20235;-51
2023/04/28 11:46:44;;;;;;;7.72;4.65;;;;;;;;;;5043830;28;20243;-51
2023/04/28 11:49:11;;;;;;;8.55;4.85;;;;;;;;;;5042411;28;20792;-50
2023/04/28 11:51:39;;;;;;;9.00;4.95;;;;;;;;;;5044261;28;20321;-51
2023/04/28 11:54:06;;;;;;;4.95;4.20;;;;;;;;;;5043630;28;20702;-51
2023/04/28 11:56:36;;;;;;;7.00;4.55;;;;;;;;;;5043263;28;20244;-51
2023/04/28 11:59:04;;;;;;;6.82;4.32;;;;;;;;;;5041656;28;20327;-51
2023/04/28 12:01:31;;;;;;;6.30;4.50;;;;;;;;;;5043443;28;20236;-50
2023/04/28 12:03:57;;;;;;;6.00;4.50;;;;;;;;;;5043601;28;20242;-51
2023/04/28 12:06:24;;;;;;;5.85;4.95;;;;;;;;;;5043768;28;20227;-50
2023/04/28 12:08:52;;;;;;;7.03;5.38;;;;;;;;;;5044058;28;20232;-51
2023/04/28 12:11:20;;;;;;;7.20;4.97;;;;;;;;;;5040805;28;20247;-51
2023/04/28 12:14:01;;;;;;;7.47;5.00;;;;;;;;;;5046141;28;20242;-51
2023/04/28 12:16:37;;;;;;;8.27;5.55;;;;;;;;;;5044103;28;20236;-50
2023/04/28 12:19:06;;;;;;;6.38;4.43;;;;;;;;;;5043617;28;20227;-51
2023/04/28 12:21:33;;;;;;;7.43;5.00;;;;;;;;;;5042491;28;20244;-51
2023/04/28 12:24:00;;;;;;;6.80;5.03;;;;;;;;;;5042969;28;20315;-51
2023/04/28 12:26:27;;;;;;;7.35;4.95;;;;;;;;;;5045131;28;20333;-51
2023/04/28 12:28:53;;;;;;;7.38;5.75;;;;;;;;;;5043411;28;20256;-50
2023/04/28 12:31:20;;;;;;;8.25;5.05;;;;;;;;;;5037227;28;20778;-52
2023/04/28 12:33:46;;;;;;;6.65;5.07;;;;;;;;;;5044554;28;20255;-50
2023/04/28 12:36:14;;;;;;;7.13;5.10;;;;;;;;;;5044574;28;20720;-52
2023/04/28 12:38:47;;;;;;;7.40;5.43;;;;;;;;;;5044339;28;20236;-52
2023/04/28 12:41:15;;;;;;;9.15;5.32;;;;;;;;;;5038441;28;20319;-52
2023/04/28 12:43:43;;;;;;;5.60;4.90;;;;;;;;;;5045046;28;20730;-51
2023/04/28 12:46:10;;;;;;;7.35;5.53;;;;;;;;;;5044622;28;20274;-50
2023/04/28 12:48:37;;;;;;;9.18;4.80;;;;;;;;;;5042329;28;20228;-52
2023/04/28 12:51:03;;;;;;;7.05;5.10;;;;;;;;;;5044780;28;20650;-59
2023/04/28 12:53:29;;;;;;;9.65;5.30;;;;;;;;;;5041996;28;20236;-50
2023/04/28 12:55:56;;;;;;;11.55;5.15;;;;;;;;;;5043568;28;20235;-52
2023/04/28 12:58:24;;;;;;;6.85;4.10;;;;;;;;;;5042604;28;20285;-51
2023/04/28 13:00:50;;;;;;;9.80;5.75;;;;;;;;;;5043679;28;20323;-52
2023/04/28 13:03:18;;;;;;;6.40;4.82;;;;;;;;;;5043096;28;20315;-55
2023/04/28 13:05:44;;;;;;;7.72;4.85;;;;;;;;;;5043423;28;20235;-59
2023/04/28 13:08:11;;;;;;;5.65;5.00;;;;;;;;;;5043959;28;20231;-51
2023/04/28 13:10:38;;;;;;;6.18;4.90;;;;;;;;;;5043843;28;20239;-51
2023/04/28 13:13:04;;;;;;;6.85;4.18;;;;;;;;;;5046018;28;20228;-52
2023/04/28 13:15:32;;;;;;;8.20;4.47;;;;;;;;;;5049789;28;20238;-52
2023/04/28 13:17:58;;;;;;;6.88;4.88;;;;;;;;;;5045366;28;20307;-52
2023/04/28 13:20:25;;;;;;;4.80;4.32;;;;;;;;;;5042607;28;20235;-51
2023/04/28 13:22:51;;;;;;;5.72;4.18;;;;;;;;;;5040220;28;20232;-51
2023/04/28 13:25:18;;;;;;;5.40;4.57;;;;;;;;;;5042231;28;20265;-52
2023/04/28 13:27:44;;;;;;;6.03;4.43;;;;;;;;;;5040221;28;20238;-54
2023/04/28 13:30:12;;;;;;;6.78;4.80;;;;;;;;;;5042897;28;20239;-49
2023/04/28 13:32:39;;;;;;;6.65;4.65;;;;;;;;;;5041606;28;20264;-51
2023/04/28 13:35:07;;;;;;;5.70;4.28;;;;;;;;;;5043892;28;20230;-51
2023/04/28 13:37:34;;;;;;;6.68;4.38;;;;;;;;;;5044445;28;20323;-54
2023/04/28 13:40:02;;;;;;;6.20;4.60;;;;;;;;;;5043932;28;20224;-51
2023/04/28 13:42:29;;;;;;;4.90;4.40;;;;;;;;;;5043260;28;20220;-52
2023/04/28 13:44:56;;;;;;;4.78;4.22;;;;;;;;;;5045519;28;20238;-51
2023/04/28 13:47:23;;;;;;;4.70;4.30;;;;;;;;;;5046931;28;20234;-50
2023/04/28 13:49:50;;;;;;;6.82;5.38;;;;;;;;;;5043939;28;20285;-52
2023/04/28 13:52:17;;;;;;;9.93;6.38;;;;;;;;;;5047914;28;20242;-51
2023/04/28 13:54:44;;;;;;;5.47;4.55;;;;;;;;;;5038928;28;20238;-54
2023/04/28 13:57:12;;;;;;;6.97;4.38;;;;;;;;;;5038769;28;20496;-53
2023/04/28 13:59:38;;;;;;;6.90;5.30;;;;;;;;;;5045376;28;20250;-51
2023/04/28 14:02:05;;;;;;;7.72;5.53;;;;;;;;;;5046080;28;20318;-51
2023/04/28 14:04:31;;;;;;;7.38;4.85;;;;;;;;;;5046477;28;20231;-51
2023/04/28 14:06:59;;;;;;;5.88;4.53;;;;;;;;;;5044502;28;20244;-50
2023/04/28 14:09:25;;;;;;;8.13;5.05;;;;;;;;;;5046842;28;20662;-51
2023/04/28 14:11:55;;;;;;;7.72;6.18;;;;;;;;;;5046705;28;20307;-50
2023/04/28 14:14:21;;;;;;;9.15;5.35;;;;;;;;;;5041164;28;20235;-50
2023/04/28 14:16:48;;;;;;;6.15;4.97;;;;;;;;;;5040711;28;20754;-53
2023/04/28 14:19:16;;;;;;;7.05;5.47;;;;;;;;;;5037895;28;20777;-51
2023/04/28 14:21:42;;;;;;;6.85;5.53;;;;;;;;;;5038784;28;20465;-52
2023/04/28 14:24:10;;;;;;;8.63;5.47;;;;;;;;;;5041021;28;20231;-51
2023/04/28 14:26:36;;;;;;;7.47;5.47;;;;;;;;;;5042923;28;20228;-51
2023/04/28 14:29:04;;;;;;;5.15;4.68;;;;;;;;;;5041967;28;20248;-51
2023/04/28 14:31:30;;;;;;;9.68;5.03;;;;;;;;;;5038670;28;20231;-51
2023/04/28 14:33:57;;;;;;;9.80;5.47;;;;;;;;;;5039977;28;20232;-50
2023/04/28 14:36:23;;;;;;;6.40;5.63;;;;;;;;;;5042775;28;20239;-50
2023/04/28 14:38:50;;;;;;;5.40;4.47;;;;;;;;;;5043846;28;20557;-53
2023/04/28 14:41:18;;;;;;;6.43;4.97;;;;;;;;;;5043651;28;20322;-51
2023/04/28 14:43:45;;;;;;;11.18;5.82;;;;;;;;;;5037109;28;20239;-51